createdAt,value
2019-04-25T00:00:01.840Z,13.93
2019-04-25T00:02:34.986Z,13.17
2019-04-25T00:05:04.828Z,13.37
2019-04-25T00:07:33.201Z,11.70
2019-04-25T00:10:01.749Z,14.17
2019-04-25T00:12:30.054Z,13.20
2019-04-25T00:14:58.442Z,14.77
2019-04-25T00:17:27.175Z,12.77
2019-04-25T00:19:55.599Z,14.57
2019-04-25T00:22:25.594Z,11.63
2019-04-25T00:25:15.916Z,14.33
2019-04-25T00:27:44.355Z,13.23
2019-04-25T00:30:12.233Z,15.60
2019-04-25T00:32:42.146Z,12.47
2019-04-25T00:35:11.797Z,12.23
2019-04-25T00:37:43.061Z,12.93
2019-04-25T00:40:11.867Z,12.03
2019-04-25T00:42:42.797Z,11.70
2019-04-25T00:45:11.893Z,13.03
2019-04-25T00:47:42.467Z,12.53
2019-04-25T00:50:11.994Z,14.47
2019-04-25T00:52:42.371Z,12.20
2019-04-25T00:55:11.629Z,12.23
2019-04-25T00:57:42.693Z,11.70
2019-04-25T01:00:25.085Z,11.30
2019-04-25T01:02:55.183Z,10.87
2019-04-25T01:05:23.555Z,13.07
2019-04-25T01:07:53.256Z,14.47
2019-04-25T01:10:23.092Z,14.90
2019-04-25T01:12:52.917Z,11.13
2019-04-25T01:15:22.643Z,19.80
2019-04-25T01:17:51.546Z,12.33
2019-04-25T01:20:21.022Z,12.60
2019-04-25T01:22:49.393Z,12.87
2019-04-25T01:25:17.855Z,13.90
2019-04-25T01:27:46.398Z,12.70
2019-04-25T01:30:15.645Z,13.13
2019-04-25T01:32:44.884Z,12.83
2019-04-25T01:35:18.018Z,12.50
2019-04-25T01:37:48.907Z,13.03
2019-04-25T01:40:23.520Z,12.20
2019-04-25T01:43:09.627Z,14.10
2019-04-25T01:45:38.078Z,12.27
2019-04-25T01:48:07.211Z,14.90
2019-04-25T01:50:35.609Z,14.07
2019-04-25T01:53:03.986Z,12.20
2019-04-25T01:55:33.598Z,13.77
2019-04-25T01:58:03.899Z,13.37
2019-04-25T02:00:40.134Z,12.27
2019-04-25T02:03:08.605Z,13.60
2019-04-25T02:05:36.982Z,14.50
2019-04-25T02:08:06.924Z,13.10
2019-04-25T02:10:35.495Z,11.00
2019-04-25T02:13:11.399Z,16.03
2019-04-25T02:15:39.890Z,13.60
2019-04-25T02:18:08.264Z,11.90
2019-04-25T02:20:36.638Z,13.93
2019-04-25T02:23:05.134Z,14.97
2019-04-25T02:25:33.522Z,18.10
2019-04-25T02:28:03.150Z,16.13
2019-04-25T02:30:31.969Z,13.23
2019-04-25T02:33:06.155Z,14.43
2019-04-25T02:35:31.082Z,14.77
2019-04-25T02:38:02.314Z,14.43
2019-04-25T02:40:29.568Z,14.07
2019-04-25T02:42:59.926Z,13.67
2019-04-25T02:45:38.771Z,13.47
2019-04-25T02:48:17.893Z,17.07
2019-04-25T02:50:54.130Z,13.67
2019-04-25T02:53:37.193Z,16.00
2019-04-25T02:56:13.202Z,14.27
2019-04-25T02:58:34.418Z,12.93
2019-04-25T03:01:16.470Z,12.27
2019-04-25T03:03:34.809Z,14.33
2019-04-25T03:06:05.962Z,13.60
2019-04-25T03:08:35.378Z,14.63
2019-04-25T03:11:05.880Z,16.37
2019-04-25T03:13:34.244Z,14.57
2019-04-25T03:16:06.892Z,13.13
2019-04-25T03:18:34.914Z,15.90
2019-04-25T03:21:17.231Z,13.27
2019-04-25T03:23:46.363Z,16.63
2019-04-25T03:26:15.086Z,12.33
2019-04-25T03:28:43.879Z,20.23
2019-04-25T03:31:21.162Z,16.83
2019-04-25T03:33:45.775Z,10.67
2019-04-25T03:36:14.265Z,14.40
2019-04-25T03:38:44.209Z,14.53
2019-04-25T03:41:13.212Z,14.13
2019-04-25T03:43:44.177Z,12.70
2019-04-25T03:46:14.191Z,12.53
2019-04-25T03:48:44.123Z,14.63
2019-04-25T03:51:15.429Z,13.37
2019-04-25T03:53:43.774Z,14.77
2019-04-25T03:56:12.944Z,13.60
2019-04-25T03:58:43.804Z,13.30
2019-04-25T04:01:13.253Z,15.47
2019-04-25T04:03:43.860Z,16.63
2019-04-25T04:06:14.230Z,15.43
2019-04-25T04:08:44.109Z,13.83
2019-04-25T04:11:14.176Z,12.57
2019-04-25T04:13:44.045Z,18.37
2019-04-25T04:16:14.403Z,15.73
2019-04-25T04:18:45.202Z,15.63
2019-04-25T04:21:30.002Z,13.90
2019-04-25T04:24:06.108Z,16.07
2019-04-25T04:26:35.172Z,13.67
2019-04-25T04:29:04.711Z,15.97
2019-04-25T04:31:33.571Z,16.40
2019-04-25T04:34:03.658Z,15.57
2019-04-25T04:36:33.734Z,14.50
2019-04-25T04:39:03.783Z,16.47
2019-04-25T04:41:33.799Z,13.90
2019-04-25T04:44:02.212Z,18.10
2019-04-25T04:46:30.700Z,14.97
2019-04-25T04:48:59.381Z,15.97
2019-04-25T04:51:27.746Z,14.67
2019-04-25T04:53:56.143Z,15.53
2019-04-25T04:56:25.753Z,11.67
2019-04-25T04:58:54.398Z,15.00
2019-04-25T05:01:24.891Z,14.47
2019-04-25T05:04:07.835Z,16.53
2019-04-25T05:06:37.890Z,13.93
2019-04-25T05:09:11.897Z,17.33
2019-04-25T05:11:41.078Z,15.40
2019-04-25T05:14:09.547Z,13.00
2019-04-25T05:16:37.983Z,17.17
2019-04-25T05:19:06.502Z,15.77
2019-04-25T05:21:34.902Z,18.60
2019-04-25T05:24:04.158Z,15.50
2019-04-25T05:26:34.144Z,16.87
2019-04-25T05:29:03.661Z,13.83
2019-04-25T05:31:45.948Z,15.97
2019-04-25T05:34:15.758Z,21.57
2019-04-25T05:36:44.402Z,17.20
2019-04-25T05:39:15.249Z,18.03
2019-04-25T05:41:50.386Z,15.83
2019-04-25T05:44:18.802Z,18.30
2019-04-25T05:46:47.148Z,14.07
2019-04-25T05:49:15.645Z,16.10
2019-04-25T05:51:44.222Z,17.27
2019-04-25T05:54:14.053Z,13.00
2019-04-25T05:56:43.806Z,18.70
2019-04-25T05:59:15.171Z,16.77
2019-04-25T06:01:43.551Z,17.20
2019-04-25T06:04:13.571Z,16.40
2019-04-25T06:06:41.979Z,16.33
2019-04-25T06:09:11.987Z,15.93
2019-04-25T06:11:43.704Z,17.23
2019-04-25T06:14:13.792Z,17.77
2019-04-25T06:16:43.576Z,17.37
2019-04-25T06:19:18.472Z,14.30
2019-04-25T06:21:43.982Z,14.40
2019-04-25T06:24:13.996Z,16.00
2019-04-25T06:26:44.049Z,20.30
2019-04-25T06:29:13.418Z,12.90
2019-04-25T06:31:41.878Z,18.33
2019-04-25T06:34:10.242Z,16.03
2019-04-25T06:36:38.650Z,13.47
2019-04-25T06:39:08.010Z,15.63
2019-04-25T06:41:36.412Z,16.07
2019-04-25T06:44:06.611Z,15.03
2019-04-25T06:46:51.530Z,15.20
2019-04-25T06:49:24.141Z,19.37
2019-04-25T06:51:54.573Z,16.63
2019-04-25T06:54:25.425Z,16.17
2019-04-25T06:56:53.587Z,14.07
2019-04-25T06:59:25.563Z,16.97
2019-04-25T07:01:54.061Z,15.33
2019-04-25T07:04:25.116Z,12.43
2019-04-25T07:06:53.510Z,14.50
2019-04-25T07:09:24.406Z,15.40
2019-04-25T07:11:53.775Z,14.27
2019-04-25T07:14:24.530Z,16.60
2019-04-25T07:16:53.242Z,13.23
2019-04-25T07:19:22.068Z,16.23
2019-04-25T07:21:50.440Z,13.43
2019-04-25T07:24:18.901Z,16.17
2019-04-25T07:26:48.917Z,13.30
2019-04-25T07:29:18.923Z,18.73
2019-04-25T07:32:05.965Z,15.37
2019-04-25T07:34:35.136Z,15.50
2019-04-25T07:37:03.906Z,15.47
2019-04-25T07:39:33.966Z,16.87
2019-04-25T07:42:04.047Z,15.60
2019-04-25T07:44:41.951Z,16.90
2019-04-25T07:47:03.843Z,13.97
2019-04-25T07:49:33.595Z,16.87
2019-04-25T07:52:03.582Z,15.17
2019-04-25T07:54:34.014Z,15.57
2019-04-25T07:57:03.609Z,17.97
2019-04-25T07:59:34.970Z,14.77
2019-04-25T08:02:03.398Z,13.57
2019-04-25T08:04:35.728Z,17.63
2019-04-25T08:07:04.484Z,19.40
2019-04-25T08:09:35.382Z,18.67
2019-04-25T08:12:03.377Z,16.37
2019-04-25T08:14:34.231Z,18.17
2019-04-25T08:17:05.290Z,15.07
2019-04-25T08:19:34.668Z,14.33
2019-04-25T08:22:03.890Z,13.87
2019-04-25T08:24:34.279Z,16.33
2019-04-25T08:27:03.238Z,16.30
2019-04-25T08:29:31.851Z,13.87
2019-04-25T08:32:00.283Z,12.53
2019-04-25T08:34:28.678Z,15.37
2019-04-25T08:36:57.070Z,16.43
2019-04-25T08:39:25.474Z,16.60
2019-04-25T08:41:54.134Z,13.93
2019-04-25T08:44:24.161Z,16.83
2019-04-25T08:46:53.549Z,13.30
2019-04-25T08:49:24.005Z,16.07
2019-04-25T08:51:55.849Z,16.60
2019-04-25T08:54:34.364Z,16.67
2019-04-25T08:57:04.426Z,14.17
2019-04-25T08:59:44.882Z,15.53
2019-04-25T09:02:13.472Z,14.90
2019-04-25T09:04:58.779Z,18.97
2019-04-25T09:07:27.415Z,17.30
2019-04-25T09:09:55.792Z,14.50
2019-04-25T09:12:24.164Z,18.23
2019-04-25T09:14:54.223Z,13.60
2019-04-25T09:17:24.322Z,18.23
2019-04-25T09:19:54.234Z,15.37
2019-04-25T09:22:24.244Z,14.77
2019-04-25T09:24:53.986Z,13.77
2019-04-25T09:27:23.465Z,19.50
2019-04-25T09:29:52.088Z,14.30
2019-04-25T09:32:20.454Z,15.73
2019-04-25T09:34:48.834Z,18.47
2019-04-25T09:37:17.218Z,17.07
2019-04-25T09:39:56.302Z,13.33
2019-04-25T09:42:24.698Z,14.60
2019-04-25T09:45:00.558Z,19.23
2019-04-25T09:47:29.123Z,13.97
2019-04-25T09:49:57.966Z,31.90
2019-04-25T09:52:26.394Z,16.13
2019-04-25T09:54:56.438Z,13.10
2019-04-25T09:57:45.549Z,15.37
2019-04-25T10:00:15.900Z,16.23
2019-04-25T10:02:44.634Z,18.13
2019-04-25T10:05:13.953Z,15.63
2019-04-25T10:07:43.522Z,17.03
2019-04-25T10:10:13.536Z,15.13
2019-04-25T10:12:42.255Z,15.10
2019-04-25T10:15:37.483Z,17.67
2019-04-25T10:18:05.906Z,15.47
2019-04-25T10:20:34.273Z,18.13
2019-04-25T10:23:02.664Z,16.80
2019-04-25T10:25:31.046Z,17.60
2019-04-25T10:27:59.429Z,14.13
2019-04-25T10:30:27.806Z,14.97
2019-04-25T10:32:56.182Z,14.57
2019-04-25T10:35:24.573Z,15.63
2019-04-25T10:37:53.722Z,14.27
2019-04-25T10:40:25.060Z,20.30
2019-04-25T10:42:53.737Z,18.20
2019-04-25T10:45:24.267Z,14.23
2019-04-25T10:47:53.330Z,14.47
2019-04-25T10:50:23.731Z,18.90
2019-04-25T10:52:52.789Z,14.13
2019-04-25T10:55:23.401Z,12.47
2019-04-25T10:57:53.497Z,13.47
2019-04-25T11:00:25.134Z,13.33
2019-04-25T11:02:54.587Z,16.63
2019-04-25T11:05:23.961Z,13.53
2019-04-25T11:07:55.737Z,13.90
2019-04-25T11:10:23.575Z,14.97
2019-04-25T11:12:53.614Z,15.00
2019-04-25T11:15:23.406Z,15.10
2019-04-25T11:17:51.913Z,14.67
2019-04-25T11:20:26.248Z,15.10
2019-04-25T11:22:54.626Z,17.73
2019-04-25T11:25:24.058Z,14.97
2019-04-25T11:27:54.151Z,16.73
2019-04-25T11:30:24.322Z,15.97
2019-04-25T11:32:53.492Z,13.67
2019-04-25T11:35:24.171Z,15.57
2019-04-25T11:37:54.939Z,14.17
2019-04-25T11:40:40.335Z,15.53
2019-04-25T11:43:08.776Z,14.67
2019-04-25T11:45:37.188Z,15.30
2019-04-25T11:48:05.542Z,15.40
2019-04-25T11:50:33.976Z,13.70
2019-04-25T11:53:03.378Z,15.73
2019-04-25T11:55:32.419Z,14.67
2019-04-25T11:58:00.808Z,12.77
2019-04-25T12:00:30.816Z,15.67
2019-04-25T12:02:59.206Z,15.83
2019-04-25T12:05:27.569Z,15.57
2019-04-25T12:07:55.951Z,14.47
2019-04-25T12:10:24.914Z,16.67
2019-04-25T12:12:53.717Z,15.67
2019-04-25T12:15:23.976Z,16.63
2019-04-25T12:17:52.394Z,14.40
2019-04-25T12:20:20.750Z,15.13
2019-04-25T12:22:49.134Z,17.27
2019-04-25T12:25:17.644Z,14.57
2019-04-25T12:27:48.593Z,15.83
2019-04-25T12:30:16.191Z,13.43
2019-04-25T12:32:45.723Z,18.10
2019-04-25T12:35:14.602Z,14.77
2019-04-25T12:37:44.203Z,15.13
2019-04-25T12:40:14.081Z,14.50
2019-04-25T12:42:44.351Z,13.90
2019-04-25T12:45:14.558Z,14.03
2019-04-25T12:47:45.303Z,17.97
2019-04-25T12:50:14.602Z,14.63
2019-04-25T12:52:43.329Z,14.90
2019-04-25T12:55:13.956Z,16.77
2019-04-25T12:57:42.374Z,14.60
2019-04-25T13:00:14.026Z,14.73
2019-04-25T13:02:44.586Z,16.13
2019-04-25T13:05:14.129Z,15.53
2019-04-25T13:07:42.719Z,13.23
2019-04-25T13:10:11.175Z,14.43
2019-04-25T13:12:39.563Z,15.03
2019-04-25T13:15:08.896Z,15.50
2019-04-25T13:17:38.066Z,15.77
2019-04-25T13:20:07.586Z,15.13
2019-04-25T13:22:36.397Z,18.83
2019-04-25T13:25:26.301Z,17.17
2019-04-25T13:28:04.049Z,16.53
2019-04-25T13:30:46.342Z,16.03
2019-04-25T13:33:16.358Z,20.87
2019-04-25T13:35:56.209Z,23.43
2019-04-25T13:38:24.617Z,21.53
2019-04-25T13:40:52.998Z,20.37
2019-04-25T13:43:21.634Z,27.77
2019-04-25T13:45:50.011Z,24.57
2019-04-25T13:48:18.382Z,25.37
2019-04-25T13:50:47.448Z,27.60
2019-04-25T13:53:15.902Z,25.83
2019-04-25T13:55:44.274Z,26.37
2019-04-25T13:58:14.358Z,24.20
2019-04-25T14:00:44.169Z,22.27
2019-04-25T14:03:13.031Z,22.97
2019-04-25T14:05:41.490Z,22.80
2019-04-25T14:08:09.953Z,24.87
2019-04-25T14:10:38.324Z,22.80
2019-04-25T14:13:07.181Z,26.77
2019-04-25T14:15:37.286Z,21.23
2019-04-25T14:18:10.579Z,20.90
2019-04-25T14:20:43.295Z,22.67
2019-04-25T14:23:13.427Z,21.37
2019-04-25T14:25:41.905Z,25.60
2019-04-25T14:28:11.001Z,25.10
2019-04-25T14:30:39.894Z,25.13
2019-04-25T14:33:08.902Z,21.37
2019-04-25T14:35:37.282Z,23.83
2019-04-25T14:38:05.734Z,24.57
2019-04-25T14:40:34.141Z,22.83
2019-04-25T14:43:03.330Z,25.33
2019-04-25T14:45:43.058Z,27.53
2019-04-25T14:48:01.722Z,25.83
2019-04-25T14:50:30.110Z,23.13
2019-04-25T14:52:58.811Z,24.73
2019-04-25T14:58:17.803Z,25.43
2019-04-25T15:00:47.902Z,28.77
2019-04-25T15:03:16.951Z,29.50
2019-04-25T15:05:45.325Z,26.83
2019-04-25T15:08:13.811Z,28.53
2019-04-25T15:10:42.197Z,28.23
2019-04-25T15:13:10.643Z,29.80
2019-04-25T15:15:39.100Z,31.20
2019-04-25T15:18:07.519Z,32.70
2019-04-25T15:20:35.910Z,31.77
2019-04-25T15:23:04.454Z,30.63
2019-04-25T15:25:32.835Z,33.07
2019-04-25T15:28:01.307Z,33.43
2019-04-25T15:30:31.334Z,28.13
2019-04-25T15:32:59.999Z,30.60
2019-04-25T15:35:33.070Z,32.17
2019-04-25T15:38:08.625Z,35.13
2019-04-25T15:40:50.737Z,32.43
2019-04-25T15:43:23.856Z,33.60
2019-04-25T15:45:53.964Z,31.33
2019-04-25T15:48:22.347Z,32.73
2019-04-25T15:50:51.181Z,31.33
2019-04-25T15:53:19.810Z,34.50
2019-04-25T15:55:48.490Z,35.07
2019-04-25T15:58:16.876Z,29.83
2019-04-25T16:00:45.334Z,30.00
2019-04-25T16:03:14.043Z,33.03
2019-04-25T16:05:42.469Z,29.30
2019-04-25T16:08:10.945Z,28.53
2019-04-25T16:10:39.340Z,27.83
2019-04-25T16:13:07.784Z,28.37
2019-04-25T16:15:36.282Z,28.60
2019-04-25T16:18:05.950Z,28.67
2019-04-25T16:20:34.376Z,31.07
2019-04-25T16:23:03.006Z,29.57
2019-04-25T16:25:31.376Z,28.83
2019-04-25T16:27:59.766Z,30.37
2019-04-25T16:30:32.826Z,31.27
2019-04-25T16:33:01.288Z,32.93
2019-04-25T16:35:29.840Z,29.63
2019-04-25T16:37:58.686Z,31.10
2019-04-25T16:40:27.544Z,31.47
2019-04-25T16:42:59.001Z,33.47
2019-04-25T16:45:27.466Z,28.40
2019-04-25T16:47:55.838Z,29.53
2019-04-25T16:50:24.439Z,27.90
2019-04-25T16:52:52.819Z,30.17
2019-04-25T16:55:21.278Z,29.93
2019-04-25T16:57:49.657Z,26.63
2019-04-25T17:00:38.339Z,25.47
2019-04-25T17:03:07.170Z,26.60
2019-04-25T17:05:35.734Z,26.43
2019-04-25T17:08:04.137Z,28.00
2019-04-25T17:10:32.849Z,23.63
2019-04-25T17:13:01.474Z,21.93
2019-04-25T17:15:46.770Z,22.73
2019-04-25T17:18:19.702Z,21.27
2019-04-25T17:20:52.505Z,22.20
2019-04-25T17:23:21.210Z,23.90
2019-04-25T17:25:49.579Z,21.63
2019-04-25T17:28:18.087Z,27.00
2019-04-25T17:30:48.114Z,24.10
2019-04-25T17:33:35.661Z,25.87
2019-04-25T17:36:08.933Z,25.37
2019-04-25T17:38:39.828Z,25.67
2019-04-25T17:41:08.592Z,26.27
2019-04-25T17:43:51.757Z,25.90
2019-04-25T17:46:21.777Z,25.00
2019-04-25T17:48:50.186Z,27.13
2019-04-25T17:51:18.639Z,27.93
2019-04-25T17:53:47.029Z,26.50
2019-04-25T17:56:15.494Z,28.73
2019-04-25T17:58:44.113Z,26.73
2019-04-25T18:01:14.122Z,27.10
2019-04-25T18:03:44.040Z,26.17
2019-04-25T18:06:12.896Z,27.20
2019-04-25T18:08:41.710Z,27.17
2019-04-25T18:11:11.047Z,27.63
2019-04-25T18:13:40.108Z,27.07
2019-04-25T18:16:13.933Z,26.37
2019-04-25T18:18:46.955Z,29.73
2019-04-25T18:21:15.368Z,24.73
2019-04-25T18:23:48.331Z,28.60
2019-04-25T18:26:18.645Z,25.60
2019-04-25T18:28:50.969Z,29.03
2019-04-25T18:31:20.549Z,26.73
2019-04-25T18:33:50.702Z,27.20
2019-04-25T18:36:40.438Z,25.93
2019-04-25T18:39:14.262Z,25.57
2019-04-25T18:41:50.410Z,26.73
2019-04-25T18:44:20.368Z,25.30
2019-04-25T18:46:48.710Z,24.90
2019-04-25T18:49:19.950Z,24.70
2019-04-25T18:51:57.497Z,22.97
2019-04-25T18:54:21.727Z,22.50
2019-04-25T18:56:52.755Z,24.03
2019-04-25T18:59:39.680Z,21.97
2019-04-25T19:02:17.898Z,18.77
2019-04-25T19:04:49.144Z,21.10
2019-04-25T19:07:22.606Z,23.23
2019-04-25T19:10:09.861Z,23.23
2019-04-25T19:12:41.127Z,21.07
2019-04-25T19:15:09.902Z,20.10
2019-04-25T19:17:38.846Z,21.57
2019-04-25T19:20:08.238Z,18.83
2019-04-25T19:22:40.131Z,19.53
2019-04-25T19:25:10.328Z,19.67
2019-04-25T19:27:42.169Z,18.83
2019-04-25T19:30:12.843Z,22.07
2019-04-25T19:32:44.960Z,18.37
2019-04-25T19:35:17.673Z,22.37
2019-04-25T19:37:46.451Z,21.27
2019-04-25T19:40:23.475Z,23.00
2019-04-25T19:43:02.281Z,26.67
2019-04-25T19:45:33.236Z,23.50
2019-04-25T19:48:02.621Z,25.10
2019-04-25T19:50:30.734Z,24.37
2019-04-25T19:53:01.831Z,22.10
2019-04-25T19:55:30.209Z,21.27
2019-04-25T19:57:58.651Z,20.63
2019-04-25T20:00:28.519Z,22.67
2019-04-25T20:02:58.982Z,27.23
2019-04-25T20:05:42.074Z,21.83
2019-04-25T20:08:28.591Z,22.10
2019-04-25T20:11:01.601Z,24.60
2019-04-25T20:13:33.281Z,21.80
2019-04-25T20:16:06.661Z,24.33
2019-04-25T20:18:36.214Z,19.70
2019-04-25T20:21:11.360Z,23.73
2019-04-25T20:23:43.593Z,21.27
2019-04-25T20:26:14.491Z,21.33
2019-04-25T20:28:44.866Z,25.73
2019-04-25T20:31:15.790Z,22.60
2019-04-25T20:34:11.308Z,22.60
2019-04-25T20:36:39.799Z,24.03
2019-04-25T20:39:10.655Z,21.77
2019-04-25T20:41:39.673Z,28.40
2019-04-25T20:44:08.020Z,25.97
2019-04-25T20:46:36.831Z,20.90
2019-04-25T20:49:05.223Z,23.10
2019-04-25T20:51:37.778Z,25.67
2019-04-25T20:54:07.619Z,22.63
2019-04-25T20:56:36.115Z,24.07
2019-04-25T20:59:05.205Z,20.80
2019-04-25T21:01:34.101Z,22.83
2019-04-25T21:04:12.765Z,22.63
2019-04-25T21:06:36.908Z,26.27
2019-04-25T21:09:06.735Z,21.37
2019-04-25T21:11:35.196Z,23.87
2019-04-25T21:14:05.410Z,21.73
2019-04-25T21:16:44.583Z,19.83
2019-04-25T21:19:14.572Z,20.30
2019-04-25T21:21:43.524Z,18.83
2019-04-25T21:24:13.025Z,16.80
2019-04-25T21:26:41.547Z,18.70
2019-04-25T21:29:10.017Z,17.30
2019-04-25T21:31:39.005Z,19.80
2019-04-25T21:34:07.488Z,22.13
2019-04-25T21:36:36.957Z,21.87
2019-04-25T21:39:07.979Z,20.40
2019-04-25T21:41:42.099Z,20.87
2019-04-25T21:44:11.277Z,25.03
2019-04-25T21:46:39.750Z,24.60
2019-04-25T21:49:08.442Z,24.43
2019-04-25T21:51:36.818Z,28.60
2019-04-25T21:54:05.488Z,25.80
2019-04-25T21:56:34.516Z,26.47
2019-04-25T21:59:04.006Z,25.90
2019-04-25T22:01:40.458Z,25.67
2019-04-25T22:04:08.836Z,26.00
2019-04-25T22:06:38.016Z,24.73
2019-04-25T22:09:11.494Z,25.10
2019-04-25T22:11:39.866Z,26.40
2019-04-25T22:14:09.219Z,26.43
2019-04-25T22:16:38.314Z,25.77
2019-04-25T22:19:08.252Z,24.10
2019-04-25T22:21:38.122Z,25.97
2019-04-25T22:24:13.761Z,26.37
2019-04-25T22:26:37.638Z,23.53
2019-04-25T22:29:07.477Z,24.83
2019-04-25T22:31:43.542Z,22.83
2019-04-25T22:34:13.590Z,22.80
2019-04-25T22:36:42.294Z,19.53
2019-04-25T22:39:14.102Z,21.00
2019-04-25T22:41:46.941Z,20.83
2019-04-25T22:44:16.664Z,18.37
2019-04-25T22:46:45.451Z,17.10
2019-04-25T22:49:13.856Z,17.90
2019-04-25T22:51:42.518Z,18.23
2019-04-25T22:54:11.811Z,21.53
2019-04-25T22:56:40.374Z,19.07
2019-04-25T22:59:09.723Z,19.80
2019-04-25T23:01:39.861Z,20.33
2019-04-25T23:04:26.255Z,21.03
2019-04-25T23:06:55.008Z,19.47
2019-04-25T23:09:23.462Z,23.37
2019-04-25T23:11:52.256Z,16.90
2019-04-25T23:14:21.239Z,16.57
2019-04-25T23:16:49.626Z,17.83
2019-04-25T23:19:18.018Z,15.63
2019-04-25T23:21:46.693Z,18.90
2019-04-25T23:24:16.721Z,16.53
2019-04-25T23:27:06.284Z,18.97
2019-04-25T23:29:35.198Z,16.00
2019-04-25T23:32:04.029Z,16.77
2019-04-25T23:34:33.316Z,16.30
2019-04-25T23:37:01.708Z,15.60
2019-04-25T23:39:30.293Z,15.20
2019-04-25T23:41:58.680Z,14.20
2019-04-25T23:44:27.102Z,15.43
2019-04-25T23:46:56.073Z,16.23
2019-04-25T23:49:24.456Z,17.07
2019-04-25T23:51:53.546Z,14.73
2019-04-25T23:54:21.921Z,16.20
2019-04-25T23:56:50.311Z,16.40
2019-04-25T23:59:18.701Z,15.53
